sensor_id;sensor_type;location;lat;lon;timestamp;P1;durP1;ratioP1;P2;durP2;ratioP2
40252;SDS011;25972;51.854;4.534;2023-04-15T00:01:25;5.00;;;2.17;;
40252;SDS011;25972;51.854;4.534;2023-04-15T00:03:52;2.97;;;1.52;;
40252;SDS011;25972;51.854;4.534;2023-04-15T00:06:19;5.72;;;1.25;;
40252;SDS011;25972;51.854;4.534;2023-04-15T00:08:46;3.88;;;1.70;;
40252;SDS011;25972;51.854;4.534;2023-04-15T00:11:13;2.25;;;1.42;;
40252;SDS011;25972;51.854;4.534;2023-04-15T00:13:39;4.05;;;1.60;;
40252;SDS011;25972;51.854;4.534;2023-04-15T00:16:06;4.65;;;1.70;;
40252;SDS011;25972;51.854;4.534;2023-04-15T00:18:33;5.32;;;1.70;;
40252;SDS011;25972;51.854;4.534;2023-04-15T00:20:59;3.58;;;1.52;;
40252;SDS011;25972;51.854;4.534;2023-04-15T00:23:25;2.45;;;1.20;;
40252;SDS011;25972;51.854;4.534;2023-04-15T00:25:52;1.83;;;1.23;;
40252;SDS011;25972;51.854;4.534;2023-04-15T00:28:18;5.50;;;1.67;;
40252;SDS011;25972;51.854;4.534;2023-04-15T00:30:44;3.75;;;1.70;;
40252;SDS011;25972;51.854;4.534;2023-04-15T00:33:11;1.45;;;1.15;;
40252;SDS011;25972;51.854;4.534;2023-04-15T00:35:37;3.33;;;1.63;;
40252;SDS011;25972;51.854;4.534;2023-04-15T00:38:04;5.93;;;1.88;;
40252;SDS011;25972;51.854;4.534;2023-04-15T00:40:34;2.33;;;1.45;;
40252;SDS011;25972;51.854;4.534;2023-04-15T00:43:00;2.80;;;1.58;;
40252;SDS011;25972;51.854;4.534;2023-04-15T00:45:26;4.22;;;1.77;;
40252;SDS011;25972;51.854;4.534;2023-04-15T00:47:53;3.08;;;1.40;;
40252;SDS011;25972;51.854;4.534;2023-04-15T00:50:20;2.42;;;1.50;;
40252;SDS011;25972;51.854;4.534;2023-04-15T00:52:47;2.60;;;1.20;;
40252;SDS011;25972;51.854;4.534;2023-04-15T00:55:13;2.42;;;1.52;;
40252;SDS011;25972;51.854;4.534;2023-04-15T00:57:40;3.83;;;1.77;;
40252;SDS011;25972;51.854;4.534;2023-04-15T01:00:06;4.45;;;1.50;;
40252;SDS011;25972;51.854;4.534;2023-04-15T01:02:33;2.22;;;1.10;;
40252;SDS011;25972;51.854;4.534;2023-04-15T01:05:00;4.05;;;1.85;;
40252;SDS011;25972;51.854;4.534;2023-04-15T01:07:28;3.63;;;1.70;;
40252;SDS011;25972;51.854;4.534;2023-04-15T01:09:54;4.55;;;1.60;;
40252;SDS011;25972;51.854;4.534;2023-04-15T01:12:21;2.22;;;1.50;;
40252;SDS011;25972;51.854;4.534;2023-04-15T01:14:49;2.95;;;1.75;;
40252;SDS011;25972;51.854;4.534;2023-04-15T01:17:15;3.28;;;1.55;;
40252;SDS011;25972;51.854;4.534;2023-04-15T01:19:42;2.88;;;1.23;;
40252;SDS011;25972;51.854;4.534;2023-04-15T01:22:08;4.85;;;1.80;;
40252;SDS011;25972;51.854;4.534;2023-04-15T01:24:36;4.18;;;1.63;;
40252;SDS011;25972;51.854;4.534;2023-04-15T01:27:03;2.78;;;1.63;;
40252;SDS011;25972;51.854;4.534;2023-04-15T01:29:30;3.42;;;1.40;;
40252;SDS011;25972;51.854;4.534;2023-04-15T01:31:57;2.58;;;1.35;;
40252;SDS011;25972;51.854;4.534;2023-04-15T01:34:25;5.75;;;1.88;;
40252;SDS011;25972;51.854;4.534;2023-04-15T01:36:52;2.17;;;1.55;;
40252;SDS011;25972;51.854;4.534;2023-04-15T01:39:20;3.33;;;1.77;;
40252;SDS011;25972;51.854;4.534;2023-04-15T01:41:46;1.95;;;1.20;;
40252;SDS011;25972;51.854;4.534;2023-04-15T01:44:14;3.38;;;1.58;;
40252;SDS011;25972;51.854;4.534;2023-04-15T01:46:41;2.95;;;1.77;;
40252;SDS011;25972;51.854;4.534;2023-04-15T01:49:06;3.55;;;1.80;;
40252;SDS011;25972;51.854;4.534;2023-04-15T01:51:32;3.70;;;1.33;;
40252;SDS011;25972;51.854;4.534;2023-04-15T01:53:58;1.45;;;0.93;;
40252;SDS011;25972;51.854;4.534;2023-04-15T01:56:24;3.03;;;1.90;;
40252;SDS011;25972;51.854;4.534;2023-04-15T01:58:51;3.38;;;1.85;;
40252;SDS011;25972;51.854;4.534;2023-04-15T02:01:16;4.80;;;1.30;;
40252;SDS011;25972;51.854;4.534;2023-04-15T02:03:46;4.28;;;1.73;;
40252;SDS011;25972;51.854;4.534;2023-04-15T02:06:13;3.95;;;1.80;;
40252;SDS011;25972;51.854;4.534;2023-04-15T02:08:40;4.28;;;1.75;;
40252;SDS011;25972;51.854;4.534;2023-04-15T02:11:06;3.42;;;1.90;;
40252;SDS011;25972;51.854;4.534;2023-04-15T02:13:32;4.05;;;1.73;;
40252;SDS011;25972;51.854;4.534;2023-04-15T02:15:58;1.98;;;1.27;;
40252;SDS011;25972;51.854;4.534;2023-04-15T02:18:24;3.50;;;1.90;;
40252;SDS011;25972;51.854;4.534;2023-04-15T02:20:51;2.80;;;1.40;;
40252;SDS011;25972;51.854;4.534;2023-04-15T02:23:17;4.45;;;1.83;;
40252;SDS011;25972;51.854;4.534;2023-04-15T02:25:43;4.00;;;1.88;;
40252;SDS011;25972;51.854;4.534;2023-04-15T02:28:09;3.30;;;1.85;;
40252;SDS011;25972;51.854;4.534;2023-04-15T02:30:35;5.30;;;2.05;;
40252;SDS011;25972;51.854;4.534;2023-04-15T02:33:01;4.18;;;2.10;;
40252;SDS011;25972;51.854;4.534;2023-04-15T02:35:27;2.17;;;1.40;;
40252;SDS011;25972;51.854;4.534;2023-04-15T02:37:54;2.92;;;1.67;;
40252;SDS011;25972;51.854;4.534;2023-04-15T02:40:20;8.07;;;2.40;;
40252;SDS011;25972;51.854;4.534;2023-04-15T02:42:47;5.95;;;1.45;;
40252;SDS011;25972;51.854;4.534;2023-04-15T02:45:15;2.53;;;1.48;;
40252;SDS011;25972;51.854;4.534;2023-04-15T02:47:42;2.65;;;1.65;;
40252;SDS011;25972;51.854;4.534;2023-04-15T02:50:10;3.63;;;1.83;;
40252;SDS011;25972;51.854;4.534;2023-04-15T02:52:39;4.63;;;2.28;;
40252;SDS011;25972;51.854;4.534;2023-04-15T02:55:06;3.58;;;1.75;;
40252;SDS011;25972;51.854;4.534;2023-04-15T02:57:35;5.68;;;2.30;;
40252;SDS011;25972;51.854;4.534;2023-04-15T03:00:05;3.53;;;1.60;;
40252;SDS011;25972;51.854;4.534;2023-04-15T03:02:36;2.90;;;1.48;;
40252;SDS011;25972;51.854;4.534;2023-04-15T03:05:04;2.60;;;1.60;;
40252;SDS011;25972;51.854;4.534;2023-04-15T03:07:31;4.32;;;2.38;;
40252;SDS011;25972;51.854;4.534;2023-04-15T03:09:58;4.97;;;2.08;;
40252;SDS011;25972;51.854;4.534;2023-04-15T03:12:24;4.80;;;1.90;;
40252;SDS011;25972;51.854;4.534;2023-04-15T03:14:55;2.25;;;1.60;;
40252;SDS011;25972;51.854;4.534;2023-04-15T03:17:29;8.38;;;2.22;;
40252;SDS011;25972;51.854;4.534;2023-04-15T03:19:55;4.07;;;1.80;;
40252;SDS011;25972;51.854;4.534;2023-04-15T03:22:22;2.63;;;1.95;;
40252;SDS011;25972;51.854;4.534;2023-04-15T03:24:48;6.00;;;2.03;;
40252;SDS011;25972;51.854;4.534;2023-04-15T03:27:15;2.25;;;1.42;;
40252;SDS011;25972;51.854;4.534;2023-04-15T03:29:41;4.00;;;1.88;;
40252;SDS011;25972;51.854;4.534;2023-04-15T03:32:07;4.70;;;2.00;;
40252;SDS011;25972;51.854;4.534;2023-04-15T03:34:33;2.97;;;1.50;;
40252;SDS011;25972;51.854;4.534;2023-04-15T03:37:00;3.65;;;1.90;;
40252;SDS011;25972;51.854;4.534;2023-04-15T03:39:26;5.22;;;1.98;;
40252;SDS011;25972;51.854;4.534;2023-04-15T03:41:52;5.90;;;1.98;;
40252;SDS011;25972;51.854;4.534;2023-04-15T03:44:18;3.60;;;1.67;;
40252;SDS011;25972;51.854;4.534;2023-04-15T03:46:44;5.93;;;2.40;;
40252;SDS011;25972;51.854;4.534;2023-04-15T03:49:12;4.43;;;1.88;;
40252;SDS011;25972;51.854;4.534;2023-04-15T03:51:38;3.92;;;1.67;;
40252;SDS011;25972;51.854;4.534;2023-04-15T03:54:06;4.25;;;1.92;;
40252;SDS011;25972;51.854;4.534;2023-04-15T03:56:32;3.35;;;1.70;;
40252;SDS011;25972;51.854;4.534;2023-04-15T03:58:58;4.63;;;2.22;;
40252;SDS011;25972;51.854;4.534;2023-04-15T04:01:26;4.55;;;2.30;;
40252;SDS011;25972;51.854;4.534;2023-04-15T04:03:52;3.75;;;2.10;;
40252;SDS011;25972;51.854;4.534;2023-04-15T04:06:18;7.18;;;2.03;;
40252;SDS011;25972;51.854;4.534;2023-04-15T04:08:44;3.58;;;1.98;;
40252;SDS011;25972;51.854;4.534;2023-04-15T04:11:10;4.10;;;1.98;;
40252;SDS011;25972;51.854;4.534;2023-04-15T04:13:36;4.88;;;1.70;;
40252;SDS011;25972;51.854;4.534;2023-04-15T04:16:03;3.10;;;2.13;;
40252;SDS011;25972;51.854;4.534;2023-04-15T04:18:30;6.25;;;1.92;;
40252;SDS011;25972;51.854;4.534;2023-04-15T04:20:57;2.92;;;2.08;;
40252;SDS011;25972;51.854;4.534;2023-04-15T04:23:23;2.80;;;1.67;;
40252;SDS011;25972;51.854;4.534;2023-04-15T04:25:49;3.03;;;1.77;;
40252;SDS011;25972;51.854;4.534;2023-04-15T04:28:16;4.05;;;1.83;;
40252;SDS011;25972;51.854;4.534;2023-04-15T04:30:44;3.22;;;1.73;;
40252;SDS011;25972;51.854;4.534;2023-04-15T04:33:10;5.95;;;2.05;;
40252;SDS011;25972;51.854;4.534;2023-04-15T04:35:36;4.15;;;2.30;;
40252;SDS011;25972;51.854;4.534;2023-04-15T04:38:02;5.30;;;2.10;;
40252;SDS011;25972;51.854;4.534;2023-04-15T04:40:28;5.25;;;2.10;;
40252;SDS011;25972;51.854;4.534;2023-04-15T04:42:55;3.70;;;1.88;;
40252;SDS011;25972;51.854;4.534;2023-04-15T04:45:20;2.67;;;1.75;;
40252;SDS011;25972;51.854;4.534;2023-04-15T04:47:47;4.75;;;1.83;;
40252;SDS011;25972;51.854;4.534;2023-04-15T04:50:12;4.18;;;1.83;;
40252;SDS011;25972;51.854;4.534;2023-04-15T04:52:39;7.60;;;2.33;;
40252;SDS011;25972;51.854;4.534;2023-04-15T04:55:05;5.80;;;1.77;;
40252;SDS011;25972;51.854;4.534;2023-04-15T04:57:33;4.68;;;2.25;;
40252;SDS011;25972;51.854;4.534;2023-04-15T05:00:00;4.68;;;1.77;;
40252;SDS011;25972;51.854;4.534;2023-04-15T05:02:28;5.47;;;1.98;;
40252;SDS011;25972;51.854;4.534;2023-04-15T05:04:55;4.53;;;2.13;;
40252;SDS011;25972;51.854;4.534;2023-04-15T05:07:21;4.03;;;1.88;;
40252;SDS011;25972;51.854;4.534;2023-04-15T05:09:47;3.72;;;2.05;;
40252;SDS011;25972;51.854;4.534;2023-04-15T05:12:13;4.20;;;2.08;;
40252;SDS011;25972;51.854;4.534;2023-04-15T05:14:39;4.95;;;2.42;;
40252;SDS011;25972;51.854;4.534;2023-04-15T05:17:06;3.33;;;2.08;;
40252;SDS011;25972;51.854;4.534;2023-04-15T05:19:33;4.32;;;2.10;;
40252;SDS011;25972;51.854;4.534;2023-04-15T05:21:59;4.15;;;1.95;;
40252;SDS011;25972;51.854;4.534;2023-04-15T05:24:25;4.28;;;1.80;;
40252;SDS011;25972;51.854;4.534;2023-04-15T05:26:51;3.65;;;1.92;;
40252;SDS011;25972;51.854;4.534;2023-04-15T05:29:17;5.10;;;2.10;;
40252;SDS011;25972;51.854;4.534;2023-04-15T05:31:43;5.20;;;2.10;;
40252;SDS011;25972;51.854;4.534;2023-04-15T05:34:09;4.45;;;2.08;;
40252;SDS011;25972;51.854;4.534;2023-04-15T05:36:40;4.13;;;1.77;;
40252;SDS011;25972;51.854;4.534;2023-04-15T05:39:06;3.88;;;2.10;;
40252;SDS011;25972;51.854;4.534;2023-04-15T05:41:33;5.38;;;2.05;;
40252;SDS011;25972;51.854;4.534;2023-04-15T05:43:59;4.93;;;2.15;;
40252;SDS011;25972;51.854;4.534;2023-04-15T05:46:25;2.28;;;1.63;;
40252;SDS011;25972;51.854;4.534;2023-04-15T05:48:51;3.30;;;1.77;;
40252;SDS011;25972;51.854;4.534;2023-04-15T05:51:17;4.43;;;2.00;;
40252;SDS011;25972;51.854;4.534;2023-04-15T05:53:43;2.85;;;1.70;;
40252;SDS011;25972;51.854;4.534;2023-04-15T05:56:12;1.45;;;1.00;;
40252;SDS011;25972;51.854;4.534;2023-04-15T05:58:38;4.38;;;2.08;;
40252;SDS011;25972;51.854;4.534;2023-04-15T06:01:04;5.70;;;2.10;;
40252;SDS011;25972;51.854;4.534;2023-04-15T06:03:30;4.50;;;2.15;;
40252;SDS011;25972;51.854;4.534;2023-04-15T06:05:56;2.95;;;1.73;;
40252;SDS011;25972;51.854;4.534;2023-04-15T06:08:22;4.03;;;1.77;;
40252;SDS011;25972;51.854;4.534;2023-04-15T06:10:48;4.00;;;2.45;;
40252;SDS011;25972;51.854;4.534;2023-04-15T06:13:14;4.43;;;2.05;;
40252;SDS011;25972;51.854;4.534;2023-04-15T06:15:41;6.05;;;2.47;;
40252;SDS011;25972;51.854;4.534;2023-04-15T06:18:07;5.13;;;2.33;;
40252;SDS011;25972;51.854;4.534;2023-04-15T06:20:33;4.90;;;2.25;;
40252;SDS011;25972;51.854;4.534;2023-04-15T06:22:59;5.15;;;2.20;;
40252;SDS011;25972;51.854;4.534;2023-04-15T06:25:25;4.07;;;1.90;;
40252;SDS011;25972;51.854;4.534;2023-04-15T06:27:51;5.30;;;2.38;;
40252;SDS011;25972;51.854;4.534;2023-04-15T06:30:16;4.65;;;2.13;;
40252;SDS011;25972;51.854;4.534;2023-04-15T06:32:42;3.20;;;1.65;;
40252;SDS011;25972;51.854;4.534;2023-04-15T06:35:08;5.15;;;2.30;;
40252;SDS011;25972;51.854;4.534;2023-04-15T06:37:34;3.80;;;1.95;;
40252;SDS011;25972;51.854;4.534;2023-04-15T06:40:00;6.13;;;2.78;;
40252;SDS011;25972;51.854;4.534;2023-04-15T06:42:26;5.32;;;2.50;;
40252;SDS011;25972;51.854;4.534;2023-04-15T06:44:52;5.53;;;2.50;;
40252;SDS011;25972;51.854;4.534;2023-04-15T06:47:18;5.47;;;1.90;;
40252;SDS011;25972;51.854;4.534;2023-04-15T06:49:44;6.57;;;3.08;;
40252;SDS011;25972;51.854;4.534;2023-04-15T06:52:10;4.68;;;2.20;;
40252;SDS011;25972;51.854;4.534;2023-04-15T06:54:36;4.78;;;2.35;;
40252;SDS011;25972;51.854;4.534;2023-04-15T06:57:02;3.80;;;2.10;;
40252;SDS011;25972;51.854;4.534;2023-04-15T06:59:28;5.45;;;2.33;;
40252;SDS011;25972;51.854;4.534;2023-04-15T07:01:55;5.82;;;2.17;;
40252;SDS011;25972;51.854;4.534;2023-04-15T07:04:21;4.90;;;2.22;;
40252;SDS011;25972;51.854;4.534;2023-04-15T07:06:47;2.85;;;1.35;;
40252;SDS011;25972;51.854;4.534;2023-04-15T07:09:13;3.83;;;2.00;;
40252;SDS011;25972;51.854;4.534;2023-04-15T07:11:39;6.13;;;2.47;;
40252;SDS011;25972;51.854;4.534;2023-04-15T07:14:05;3.90;;;2.10;;
40252;SDS011;25972;51.854;4.534;2023-04-15T07:16:31;4.15;;;2.10;;
40252;SDS011;25972;51.854;4.534;2023-04-15T07:18:57;4.85;;;2.22;;
40252;SDS011;25972;51.854;4.534;2023-04-15T07:21:23;5.65;;;2.40;;
40252;SDS011;25972;51.854;4.534;2023-04-15T07:23:49;5.35;;;2.10;;
40252;SDS011;25972;51.854;4.534;2023-04-15T07:26:16;5.20;;;2.30;;
40252;SDS011;25972;51.854;4.534;2023-04-15T07:28:42;6.22;;;2.60;;
40252;SDS011;25972;51.854;4.534;2023-04-15T07:31:07;4.38;;;2.00;;
40252;SDS011;25972;51.854;4.534;2023-04-15T07:33:33;6.95;;;2.63;;
40252;SDS011;25972;51.854;4.534;2023-04-15T07:36:00;5.95;;;2.17;;
40252;SDS011;25972;51.854;4.534;2023-04-15T07:38:25;4.75;;;2.05;;
40252;SDS011;25972;51.854;4.534;2023-04-15T07:40:52;3.80;;;1.70;;
40252;SDS011;25972;51.854;4.534;2023-04-15T07:43:18;6.13;;;2.42;;
40252;SDS011;25972;51.854;4.534;2023-04-15T07:45:45;3.88;;;2.17;;
40252;SDS011;25972;51.854;4.534;2023-04-15T07:48:11;3.15;;;1.35;;
40252;SDS011;25972;51.854;4.534;2023-04-15T07:50:37;2.78;;;1.75;;
40252;SDS011;25972;51.854;4.534;2023-04-15T07:53:03;5.10;;;2.20;;
40252;SDS011;25972;51.854;4.534;2023-04-15T07:55:30;5.03;;;2.22;;
40252;SDS011;25972;51.854;4.534;2023-04-15T07:57:56;4.68;;;1.95;;
40252;SDS011;25972;51.854;4.534;2023-04-15T08:00:23;4.40;;;2.03;;
40252;SDS011;25972;51.854;4.534;2023-04-15T08:02:50;3.45;;;1.92;;
40252;SDS011;25972;51.854;4.534;2023-04-15T08:05:18;3.30;;;1.65;;
40252;SDS011;25972;51.854;4.534;2023-04-15T08:07:44;3.83;;;1.85;;
40252;SDS011;25972;51.854;4.534;2023-04-15T08:10:10;3.83;;;1.85;;
40252;SDS011;25972;51.854;4.534;2023-04-15T08:12:36;5.57;;;2.55;;
40252;SDS011;25972;51.854;4.534;2023-04-15T08:15:02;4.43;;;2.10;;
40252;SDS011;25972;51.854;4.534;2023-04-15T08:17:29;3.63;;;2.00;;
40252;SDS011;25972;51.854;4.534;2023-04-15T08:19:55;5.32;;;2.10;;
40252;SDS011;25972;51.854;4.534;2023-04-15T08:22:22;5.97;;;2.80;;
40252;SDS011;25972;51.854;4.534;2023-04-15T08:24:48;5.80;;;2.50;;
40252;SDS011;25972;51.854;4.534;2023-04-15T08:27:14;3.83;;;1.90;;
40252;SDS011;25972;51.854;4.534;2023-04-15T08:29:40;7.20;;;2.47;;
40252;SDS011;25972;51.854;4.534;2023-04-15T08:32:06;3.15;;;1.10;;
40252;SDS011;25972;51.854;4.534;2023-04-15T08:34:32;3.03;;;1.63;;
40252;SDS011;25972;51.854;4.534;2023-04-15T08:36:59;2.90;;;1.33;;
40252;SDS011;25972;51.854;4.534;2023-04-15T08:39:25;4.85;;;2.13;;
40252;SDS011;25972;51.854;4.534;2023-04-15T08:41:55;4.47;;;2.00;;
40252;SDS011;25972;51.854;4.534;2023-04-15T08:44:26;4.78;;;1.95;;
40252;SDS011;25972;51.854;4.534;2023-04-15T08:46:55;3.22;;;1.80;;
40252;SDS011;25972;51.854;4.534;2023-04-15T08:49:21;4.65;;;2.30;;
40252;SDS011;25972;51.854;4.534;2023-04-15T08:51:51;4.60;;;2.00;;
40252;SDS011;25972;51.854;4.534;2023-04-15T08:54:17;6.00;;;2.70;;
40252;SDS011;25972;51.854;4.534;2023-04-15T08:56:45;3.53;;;1.95;;
40252;SDS011;25972;51.854;4.534;2023-04-15T08:59:11;4.10;;;1.95;;
40252;SDS011;25972;51.854;4.534;2023-04-15T09:01:38;6.35;;;2.25;;
40252;SDS011;25972;51.854;4.534;2023-04-15T09:04:04;3.20;;;1.73;;
40252;SDS011;25972;51.854;4.534;2023-04-15T09:06:32;5.75;;;2.63;;
40252;SDS011;25972;51.854;4.534;2023-04-15T09:08:58;4.03;;;1.77;;
40252;SDS011;25972;51.854;4.534;2023-04-15T09:11:24;5.45;;;1.83;;
40252;SDS011;25972;51.854;4.534;2023-04-15T09:13:51;6.30;;;2.42;;
40252;SDS011;25972;51.854;4.534;2023-04-15T09:16:17;3.70;;;1.80;;
40252;SDS011;25972;51.854;4.534;2023-04-15T09:18:43;3.03;;;1.63;;
40252;SDS011;25972;51.854;4.534;2023-04-15T09:21:13;3.50;;;1.60;;
40252;SDS011;25972;51.854;4.534;2023-04-15T09:23:41;4.65;;;2.00;;
40252;SDS011;25972;51.854;4.534;2023-04-15T09:26:32;4.63;;;2.03;;
40252;SDS011;25972;51.854;4.534;2023-04-15T09:29:08;5.30;;;2.00;;
40252;SDS011;25972;51.854;4.534;2023-04-15T09:31:37;4.53;;;2.30;;
40252;SDS011;25972;51.854;4.534;2023-04-15T09:34:06;4.20;;;2.15;;
40252;SDS011;25972;51.854;4.534;2023-04-15T09:39:16;2.05;;;1.00;;
40252;SDS011;25972;51.854;4.534;2023-04-15T09:41:42;3.47;;;1.60;;
40252;SDS011;25972;51.854;4.534;2023-04-15T09:44:22;2.78;;;1.45;;
40252;SDS011;25972;51.854;4.534;2023-04-15T09:46:49;4.63;;;1.88;;
40252;SDS011;25972;51.854;4.534;2023-04-15T09:49:14;4.30;;;2.00;;
40252;SDS011;25972;51.854;4.534;2023-04-15T09:51:42;4.53;;;1.42;;
40252;SDS011;25972;51.854;4.534;2023-04-15T09:54:08;5.22;;;1.65;;
40252;SDS011;25972;51.854;4.534;2023-04-15T09:56:35;2.30;;;1.13;;
40252;SDS011;25972;51.854;4.534;2023-04-15T09:59:03;4.10;;;1.63;;
40252;SDS011;25972;51.854;4.534;2023-04-15T10:01:30;2.35;;;1.05;;
40252;SDS011;25972;51.854;4.534;2023-04-15T10:03:56;3.08;;;1.27;;
40252;SDS011;25972;51.854;4.534;2023-04-15T10:06:24;2.38;;;1.10;;
40252;SDS011;25972;51.854;4.534;2023-04-15T10:08:51;3.55;;;1.77;;
40252;SDS011;25972;51.854;4.534;2023-04-15T10:11:18;3.90;;;1.30;;
40252;SDS011;25972;51.854;4.534;2023-04-15T10:13:45;3.85;;;1.60;;
40252;SDS011;25972;51.854;4.534;2023-04-15T10:16:13;1.27;;;1.08;;
40252;SDS011;25972;51.854;4.534;2023-04-15T10:18:47;1.13;;;1.00;;
40252;SDS011;25972;51.854;4.534;2023-04-15T10:21:18;3.00;;;1.40;;
40252;SDS011;25972;51.854;4.534;2023-04-15T10:23:47;2.75;;;1.30;;
40252;SDS011;25972;51.854;4.534;2023-04-15T10:26:14;2.58;;;1.05;;
40252;SDS011;25972;51.854;4.534;2023-04-15T10:28:45;2.63;;;1.58;;
40252;SDS011;25972;51.854;4.534;2023-04-15T10:31:12;3.10;;;1.52;;
40252;SDS011;25972;51.854;4.534;2023-04-15T10:33:42;1.48;;;1.10;;
40252;SDS011;25972;51.854;4.534;2023-04-15T10:36:10;3.05;;;1.65;;
40252;SDS011;25972;51.854;4.534;2023-04-15T10:38:40;1.98;;;1.30;;
40252;SDS011;25972;51.854;4.534;2023-04-15T10:41:12;0.88;;;0.75;;
40252;SDS011;25972;51.854;4.534;2023-04-15T10:43:50;0.77;;;0.77;;
40252;SDS011;25972;51.854;4.534;2023-04-15T10:46:20;1.35;;;0.60;;
40252;SDS011;25972;51.854;4.534;2023-04-15T10:48:51;3.58;;;0.70;;
40252;SDS011;25972;51.854;4.534;2023-04-15T10:51:28;2.97;;;0.88;;
40252;SDS011;25972;51.854;4.534;2023-04-15T10:53:55;0.45;;;0.38;;
40252;SDS011;25972;51.854;4.534;2023-04-15T10:56:23;1.15;;;0.95;;
40252;SDS011;25972;51.854;4.534;2023-04-15T10:58:49;1.02;;;0.90;;
40252;SDS011;25972;51.854;4.534;2023-04-15T11:01:16;1.85;;;1.13;;
40252;SDS011;25972;51.854;4.534;2023-04-15T11:03:45;1.75;;;0.88;;
40252;SDS011;25972;51.854;4.534;2023-04-15T11:06:11;1.85;;;1.20;;
40252;SDS011;25972;51.854;4.534;2023-04-15T11:08:56;1.45;;;0.95;;
40252;SDS011;25972;51.854;4.534;2023-04-15T11:14:32;2.45;;;0.75;;
40252;SDS011;25972;51.854;4.534;2023-04-15T11:16:59;1.20;;;0.80;;
40252;SDS011;25972;51.854;4.534;2023-04-15T11:19:34;0.70;;;0.70;;
40252;SDS011;25972;51.854;4.534;2023-04-15T11:22:10;2.65;;;1.00;;
40252;SDS011;25972;51.854;4.534;2023-04-15T11:24:45;0.60;;;0.55;;
40252;SDS011;25972;51.854;4.534;2023-04-15T11:27:22;1.98;;;1.20;;
40252;SDS011;25972;51.854;4.534;2023-04-15T11:29:48;2.15;;;1.10;;
40252;SDS011;25972;51.854;4.534;2023-04-15T11:32:14;1.23;;;1.13;;
40252;SDS011;25972;51.854;4.534;2023-04-15T11:34:40;2.05;;;1.25;;
40252;SDS011;25972;51.854;4.534;2023-04-15T11:37:10;2.75;;;1.25;;
40252;SDS011;25972;51.854;4.534;2023-04-15T11:39:37;2.60;;;1.15;;
40252;SDS011;25972;51.854;4.534;2023-04-15T11:42:11;3.88;;;1.00;;
40252;SDS011;25972;51.854;4.534;2023-04-15T11:44:42;2.70;;;1.30;;
40252;SDS011;25972;51.854;4.534;2023-04-15T11:47:21;0.68;;;0.68;;
40252;SDS011;25972;51.854;4.534;2023-04-15T11:49:48;1.40;;;1.00;;
40252;SDS011;25972;51.854;4.534;2023-04-15T11:52:14;2.28;;;1.27;;
40252;SDS011;25972;51.854;4.534;2023-04-15T11:54:40;1.67;;;1.23;;
40252;SDS011;25972;51.854;4.534;2023-04-15T11:57:06;1.15;;;1.02;;
40252;SDS011;25972;51.854;4.534;2023-04-15T11:59:42;1.55;;;0.88;;
40252;SDS011;25972;51.854;4.534;2023-04-15T12:02:12;3.28;;;0.98;;
40252;SDS011;25972;51.854;4.534;2023-04-15T12:04:39;2.97;;;1.35;;
40252;SDS011;25972;51.854;4.534;2023-04-15T12:07:05;2.13;;;1.20;;
40252;SDS011;25972;51.854;4.534;2023-04-15T12:09:36;1.15;;;0.82;;
40252;SDS011;25972;51.854;4.534;2023-04-15T12:12:02;2.25;;;1.02;;
40252;SDS011;25972;51.854;4.534;2023-04-15T12:14:29;2.35;;;1.13;;
40252;SDS011;25972;51.854;4.534;2023-04-15T12:17:04;1.88;;;1.20;;
40252;SDS011;25972;51.854;4.534;2023-04-15T12:22:10;2.13;;;1.00;;
40252;SDS011;25972;51.854;4.534;2023-04-15T12:24:38;2.28;;;1.00;;
40252;SDS011;25972;51.854;4.534;2023-04-15T12:27:08;1.38;;;0.90;;
40252;SDS011;25972;51.854;4.534;2023-04-15T12:29:36;1.95;;;1.10;;
40252;SDS011;25972;51.854;4.534;2023-04-15T12:32:23;2.08;;;1.23;;
40252;SDS011;25972;51.854;4.534;2023-04-15T12:34:50;1.70;;;1.15;;
40252;SDS011;25972;51.854;4.534;2023-04-15T12:37:17;2.63;;;1.20;;
40252;SDS011;25972;51.854;4.534;2023-04-15T12:39:44;2.42;;;1.27;;
40252;SDS011;25972;51.854;4.534;2023-04-15T12:42:13;1.92;;;0.98;;
40252;SDS011;25972;51.854;4.534;2023-04-15T12:44:40;1.13;;;1.00;;
40252;SDS011;25972;51.854;4.534;2023-04-15T12:47:07;1.60;;;0.77;;
40252;SDS011;25972;51.854;4.534;2023-04-15T12:49:35;3.60;;;0.90;;
40252;SDS011;25972;51.854;4.534;2023-04-15T12:52:01;1.27;;;0.88;;
40252;SDS011;25972;51.854;4.534;2023-04-15T12:54:28;2.67;;;1.10;;
40252;SDS011;25972;51.854;4.534;2023-04-15T12:56:55;4.05;;;1.10;;
40252;SDS011;25972;51.854;4.534;2023-04-15T12:59:22;2.00;;;1.15;;
40252;SDS011;25972;51.854;4.534;2023-04-15T13:01:49;2.60;;;0.77;;
40252;SDS011;25972;51.854;4.534;2023-04-15T13:04:16;0.70;;;0.68;;
40252;SDS011;25972;51.854;4.534;2023-04-15T13:06:44;1.35;;;1.00;;
40252;SDS011;25972;51.854;4.534;2023-04-15T13:09:10;0.63;;;0.63;;
40252;SDS011;25972;51.854;4.534;2023-04-15T13:11:36;1.00;;;0.85;;
40252;SDS011;25972;51.854;4.534;2023-04-15T13:14:03;0.98;;;0.70;;
40252;SDS011;25972;51.854;4.534;2023-04-15T13:16:31;0.50;;;0.50;;
40252;SDS011;25972;51.854;4.534;2023-04-15T13:18:58;1.45;;;0.80;;
40252;SDS011;25972;51.854;4.534;2023-04-15T13:21:26;0.60;;;0.60;;
40252;SDS011;25972;51.854;4.534;2023-04-15T13:23:52;0.90;;;0.50;;
40252;SDS011;25972;51.854;4.534;2023-04-15T13:26:19;1.30;;;0.80;;
40252;SDS011;25972;51.854;4.534;2023-04-15T13:28:45;0.85;;;0.50;;
40252;SDS011;25972;51.854;4.534;2023-04-15T13:31:12;1.58;;;0.73;;
40252;SDS011;25972;51.854;4.534;2023-04-15T13:33:38;0.77;;;0.70;;
40252;SDS011;25972;51.854;4.534;2023-04-15T13:36:04;0.80;;;0.70;;
40252;SDS011;25972;51.854;4.534;2023-04-15T13:38:30;0.98;;;0.60;;
40252;SDS011;25972;51.854;4.534;2023-04-15T13:40:56;1.23;;;0.77;;
40252;SDS011;25972;51.854;4.534;2023-04-15T13:43:22;1.58;;;0.65;;
40252;SDS011;25972;51.854;4.534;2023-04-15T13:45:48;0.63;;;0.63;;
40252;SDS011;25972;51.854;4.534;2023-04-15T13:48:14;2.50;;;0.63;;
40252;SDS011;25972;51.854;4.534;2023-04-15T13:50:40;0.80;;;0.80;;
40252;SDS011;25972;51.854;4.534;2023-04-15T13:53:10;1.23;;;0.60;;
40252;SDS011;25972;51.854;4.534;2023-04-15T13:55:36;0.73;;;0.55;;
40252;SDS011;25972;51.854;4.534;2023-04-15T13:58:06;0.60;;;0.60;;
40252;SDS011;25972;51.854;4.534;2023-04-15T14:00:32;0.75;;;0.50;;
40252;SDS011;25972;51.854;4.534;2023-04-15T14:02:58;1.67;;;1.02;;
40252;SDS011;25972;51.854;4.534;2023-04-15T14:05:24;0.70;;;0.70;;
40252;SDS011;25972;51.854;4.534;2023-04-15T14:07:50;0.43;;;0.43;;
40252;SDS011;25972;51.854;4.534;2023-04-15T14:10:16;2.00;;;0.90;;
40252;SDS011;25972;51.854;4.534;2023-04-15T14:12:42;0.95;;;0.68;;
40252;SDS011;25972;51.854;4.534;2023-04-15T14:15:09;0.95;;;0.82;;
40252;SDS011;25972;51.854;4.534;2023-04-15T14:17:35;1.33;;;0.80;;
40252;SDS011;25972;51.854;4.534;2023-04-15T14:20:01;2.47;;;0.57;;
40252;SDS011;25972;51.854;4.534;2023-04-15T14:22:27;1.25;;;0.65;;
40252;SDS011;25972;51.854;4.534;2023-04-15T14:24:52;0.60;;;0.47;;
40252;SDS011;25972;51.854;4.534;2023-04-15T14:27:19;3.33;;;1.25;;
40252;SDS011;25972;51.854;4.534;2023-04-15T14:29:45;0.50;;;0.50;;
40252;SDS011;25972;51.854;4.534;2023-04-15T14:32:11;0.52;;;0.40;;
40252;SDS011;25972;51.854;4.534;2023-04-15T14:34:38;4.05;;;1.00;;
40252;SDS011;25972;51.854;4.534;2023-04-15T14:37:04;1.63;;;1.00;;
40252;SDS011;25972;51.854;4.534;2023-04-15T14:39:30;0.90;;;0.70;;
40252;SDS011;25972;51.854;4.534;2023-04-15T14:41:56;0.55;;;0.55;;
40252;SDS011;25972;51.854;4.534;2023-04-15T14:44:22;2.50;;;1.55;;
40252;SDS011;25972;51.854;4.534;2023-04-15T14:46:49;2.40;;;0.98;;
40252;SDS011;25972;51.854;4.534;2023-04-15T14:49:15;1.88;;;0.93;;
40252;SDS011;25972;51.854;4.534;2023-04-15T14:51:41;1.40;;;0.80;;
40252;SDS011;25972;51.854;4.534;2023-04-15T14:54:07;1.45;;;0.90;;
40252;SDS011;25972;51.854;4.534;2023-04-15T14:56:33;1.45;;;0.80;;